Time;durP1;ratioP1;P1;durP2;ratioP2;P2;SDS_P1;SDS_P2;PMS_P1;PMS_P2;Temp;Humidity;BMP_temperature;BMP_pressure;BME280_temperature;BME280_humidity;BME280_pressure;Samples;Min_cycle;Max_cycle;Signal;HPM_P1;HPM_P2
2022/08/10 00:02:31;;;;;;;13.97;13.17;;;20.20;84.10;;;;;;4905165;29;20559;-69
2022/08/10 00:04:59;;;;;;;13.63;12.93;;;20.20;84.60;;;;;;4905424;29;20462;-69
2022/08/10 00:07:26;;;;;;;13.83;13.13;;;20.10;85.90;;;;;;4906662;29;20828;-69
2022/08/10 00:09:53;;;;;;;13.67;12.97;;;20.20;85.60;;;;;;4905090;29;20875;-69
2022/08/10 00:12:20;;;;;;;11.30;10.77;;;20.20;85.50;;;;;;4904727;29;21152;-69
2022/08/10 00:14:47;;;;;;;12.93;12.33;;;20.20;85.80;;;;;;4906154;29;20443;-69
2022/08/10 00:17:14;;;;;;;12.87;12.27;;;20.20;86.40;;;;;;4905402;29;20481;-69
2022/08/10 00:19:40;;;;;;;13.10;12.40;;;20.20;87.40;;;;;;4904639;29;21018;-69
2022/08/10 00:22:10;;;;;;;12.67;12.07;;;20.30;87.80;;;;;;4906130;29;20450;-70
2022/08/10 00:24:37;;;;;;;13.40;12.80;;;20.20;87.40;;;;;;4910617;29;20458;-70
2022/08/10 00:27:04;;;;;;;13.27;12.67;;;20.20;88.30;;;;;;4914863;29;20454;-69
2022/08/10 00:29:31;;;;;;;13.27;12.67;;;20.30;89.40;;;;;;4914868;29;20458;-69
2022/08/10 00:31:57;;;;;;;11.77;11.27;;;20.20;89.60;;;;;;4915078;29;20825;-69
2022/08/10 00:34:24;;;;;;;13.13;12.43;;;20.20;90.60;;;;;;4914933;29;20461;-69
2022/08/10 00:36:51;;;;;;;13.27;12.77;;;20.10;90.90;;;;;;4914736;29;20451;-70
2022/08/10 00:39:19;;;;;;;14.27;13.43;;;20.10;91.20;;;;;;4914821;29;20458;-68
2022/08/10 00:41:45;;;;;;;13.13;12.43;;;19.90;91.70;;;;;;4914869;29;20466;-68
2022/08/10 00:44:12;;;;;;;13.60;13.00;;;19.80;92.50;;;;;;4915051;29;20458;-69
2022/08/10 00:46:39;;;;;;;13.57;12.87;;;19.80;92.70;;;;;;4913827;29;20455;-68
2022/08/10 00:49:05;;;;;;;14.03;13.23;;;19.80;93.20;;;;;;4914592;29;20477;-69
2022/08/10 00:51:32;;;;;;;13.50;12.70;;;19.80;93.00;;;;;;4914568;29;20467;-69
2022/08/10 00:53:59;;;;;;;13.50;12.70;;;19.60;93.70;;;;;;4914824;29;20494;-69
2022/08/10 00:56:28;;;;;;;14.03;13.03;;;19.60;93.80;;;;;;4914625;29;20450;-69
2022/08/10 00:58:55;;;;;;;13.57;12.77;;;19.50;94.00;;;;;;4914611;29;20810;-68
2022/08/10 01:01:22;;;;;;;13.10;12.50;;;19.40;94.20;;;;;;4914428;29;20450;-68
2022/08/10 01:03:48;;;;;;;14.67;13.70;;;19.40;94.80;;;;;;4914297;29;20457;-69
2022/08/10 01:06:24;;;;;;;13.40;12.80;;;19.40;94.60;;;;;;4914413;29;20458;-68
2022/08/10 01:08:57;;;;;;;13.87;12.90;;;19.30;94.70;;;;;;4914386;29;20492;-68
2022/08/10 01:11:32;;;;;;;13.57;12.73;;;19.30;95.20;;;;;;4914386;29;20458;-69
2022/08/10 01:14:07;;;;;;;15.13;13.90;;;19.20;95.80;;;;;;4914582;29;20498;-69
2022/08/10 01:16:37;;;;;;;13.87;12.97;;;19.30;96.10;;;;;;4914233;29;20454;-68
2022/08/10 01:19:19;;;;;;;14.80;13.80;;;19.20;96.10;;;;;;4913954;29;20486;-68
2022/08/10 01:22:21;;;;;;;13.60;12.80;;;19.10;96.60;;;;;;4914320;29;20465;-68
2022/08/10 01:25:20;;;;;;;13.50;12.73;;;19.20;96.60;;;;;;4914325;29;20545;-68
2022/08/10 01:27:57;;;;;;;13.70;12.90;;;19.00;96.80;;;;;;4903286;29;20461;-68
2022/08/10 01:30:29;;;;;;;14.47;13.67;;;18.90;97.20;;;;;;4914188;29;20454;-69
2022/08/10 01:33:03;;;;;;;15.00;14.17;;;18.90;97.60;;;;;;4914206;29;21016;-69
2022/08/10 04:45:58;;;;;;;15.93;14.83;;;16.90;99.90;;;;;;5354562;23;20905;-68
2022/08/10 04:48:25;;;;;;;14.67;13.70;;;17.00;99.90;;;;;;4970916;28;20509;-67
2022/08/10 04:50:52;;;;;;;15.27;14.37;;;17.00;99.90;;;;;;4970956;28;20460;-66
2022/08/10 04:53:19;;;;;;;14.27;13.50;;;17.10;99.90;;;;;;4972332;28;20494;-68
2022/08/10 04:55:45;;;;;;;15.37;14.20;;;17.10;99.90;;;;;;4972112;28;20941;-68
2022/08/10 04:58:12;;;;;;;15.80;14.37;;;17.20;99.90;;;;;;4972303;28;20840;-68
2022/08/10 05:00:39;;;;;;;14.70;13.63;;;17.40;99.90;;;;;;4971897;28;20571;-68
2022/08/10 05:03:07;;;;;;;15.20;14.10;;;17.90;99.90;;;;;;4972509;28;20447;-69
2022/08/10 05:05:34;;;;;;;16.17;14.70;;;18.60;99.90;;;;;;4972590;28;20463;-69
2022/08/10 05:08:01;;;;;;;14.97;14.07;;;19.20;99.90;;;;;;4972487;28;20455;-68
2022/08/10 05:10:27;;;;;;;15.70;14.80;;;19.70;99.90;;;;;;4972438;28;20541;-68
2022/08/10 05:12:54;;;;;;;15.10;14.10;;;20.20;99.90;;;;;;4972352;28;20491;-68
2022/08/10 05:15:23;;;;;;;15.70;14.70;;;20.70;98.70;;;;;;4972462;28;20460;-68
2022/08/10 05:17:50;;;;;;;15.53;14.53;;;21.20;97.60;;;;;;4972434;28;20511;-68
2022/08/10 05:20:19;;;;;;;15.60;14.70;;;21.50;96.10;;;;;;4972130;28;20455;-68
2022/08/10 05:22:46;;;;;;;14.93;14.13;;;21.70;95.80;;;;;;4972106;28;20455;-68
2022/08/10 05:25:16;;;;;;;15.20;14.50;;;21.90;94.90;;;;;;4972280;28;20455;-69
2022/08/10 05:27:44;;;;;;;15.73;14.60;;;22.20;94.50;;;;;;4972067;28;21229;-68
2022/08/10 05:30:13;;;;;;;16.07;14.70;;;22.60;93.70;;;;;;4971974;28;20452;-68
2022/08/10 05:32:40;;;;;;;14.90;14.00;;;23.00;92.80;;;;;;4971453;28;20456;-69
2022/08/10 05:35:07;;;;;;;15.13;14.30;;;23.50;92.00;;;;;;4972332;28;20448;-69
2022/08/10 05:37:36;;;;;;;16.30;14.97;;;23.80;91.10;;;;;;4972071;28;20460;-68
2022/08/10 05:40:06;;;;;;;15.90;14.70;;;24.10;90.20;;;;;;4972114;28;20459;-69
2022/08/10 05:42:33;;;;;;;15.13;14.43;;;24.20;89.60;;;;;;4972023;28;20455;-69
2022/08/10 05:45:00;;;;;;;16.07;15.13;;;24.50;87.80;;;;;;4971549;28;20491;-69
2022/08/10 05:47:27;;;;;;;15.83;14.80;;;24.80;86.50;;;;;;4971874;28;20463;-69
2022/08/10 05:49:54;;;;;;;15.73;14.70;;;25.20;84.30;;;;;;4972115;28;20460;-69
2022/08/10 05:52:21;;;;;;;14.03;13.30;;;25.30;82.30;;;;;;4970260;28;20459;-72
2022/08/10 05:54:50;;;;;;;15.83;14.60;;;25.30;81.80;;;;;;4970427;28;20490;-70
2022/08/10 05:57:19;;;;;;;16.30;15.30;;;25.60;81.10;;;;;;4971522;28;20456;-72
2022/08/10 05:59:49;;;;;;;16.40;15.23;;;25.90;79.10;;;;;;4970911;28;20853;-72
2022/08/10 06:02:24;;;;;;;15.60;14.27;;;26.00;78.80;;;;;;4971376;28;20448;-72
2022/08/10 06:04:53;;;;;;;16.30;15.10;;;26.40;76.60;;;;;;4971346;28;20451;-72
2022/08/10 06:07:21;;;;;;;15.43;13.93;;;26.70;75.20;;;;;;4971055;28;20459;-72
2022/08/10 06:09:50;;;;;;;14.87;14.17;;;26.90;73.30;;;;;;4970993;28;20486;-71
2022/08/10 06:12:19;;;;;;;15.50;14.60;;;27.10;72.60;;;;;;4970948;28;20455;-72
2022/08/10 06:15:02;;;;;;;15.47;14.47;;;27.30;70.40;;;;;;4970624;28;20510;-71
2022/08/10 06:17:30;;;;;;;13.43;12.80;;;27.50;70.20;;;;;;4970807;28;20968;-72
2022/08/10 06:19:57;;;;;;;14.90;14.03;;;27.60;69.90;;;;;;4970789;28;20456;-72
2022/08/10 06:22:26;;;;;;;15.10;14.10;;;27.70;67.90;;;;;;4970750;28;20463;-72
2022/08/10 06:24:55;;;;;;;15.80;14.90;;;28.10;66.70;;;;;;4970972;28;20926;-72
2022/08/10 06:27:22;;;;;;;14.60;13.90;;;28.30;64.60;;;;;;4971003;28;20456;-71
2022/08/10 06:29:50;;;;;;;13.90;13.10;;;28.60;63.20;;;;;;4969021;28;20810;-72
2022/08/10 06:32:24;;;;;;;14.33;13.63;;;28.90;61.40;;;;;;4970668;28;20463;-72
2022/08/10 06:34:53;;;;;;;14.00;13.20;;;29.10;60.70;;;;;;4971036;28;21000;-71
2022/08/10 06:37:24;;;;;;;14.50;13.70;;;29.60;58.30;;;;;;4970900;28;20454;-72
2022/08/10 06:39:51;;;;;;;14.77;14.17;;;29.90;57.90;;;;;;4970970;28;20823;-72
2022/08/10 06:42:26;;;;;;;14.63;13.77;;;30.00;56.80;;;;;;4970549;28;20452;-72
2022/08/10 06:44:56;;;;;;;14.20;13.40;;;30.00;56.60;;;;;;4970937;28;20486;-73
2022/08/10 06:47:28;;;;;;;13.97;13.37;;;30.10;55.80;;;;;;4972571;28;20452;-73
2022/08/10 06:49:59;;;;;;;13.37;12.87;;;30.10;55.70;;;;;;4973906;28;20844;-72
2022/08/10 06:52:30;;;;;;;13.53;13.00;;;30.10;54.80;;;;;;4973857;28;20937;-72
2022/08/10 06:55:00;;;;;;;13.83;13.23;;;29.90;54.70;;;;;;4973778;28;21004;-71
2022/08/10 06:57:32;;;;;;;13.93;13.20;;;29.60;55.30;;;;;;4973641;28;20809;-73
2022/08/10 07:00:01;;;;;;;13.00;12.50;;;29.60;54.70;;;;;;4973920;28;20455;-72
2022/08/10 07:02:33;;;;;;;14.73;14.13;;;29.40;55.00;;;;;;4973647;28;20455;-72
2022/08/10 07:05:03;;;;;;;15.60;14.80;;;29.90;55.00;;;;;;4973581;28;20611;-72
2022/08/10 07:07:36;;;;;;;15.97;15.03;;;30.10;54.00;;;;;;4973714;28;20456;-72
2022/08/10 07:10:03;;;;;;;15.53;14.93;;;30.50;53.30;;;;;;4973518;28;20463;-72
2022/08/10 07:12:32;;;;;;;14.80;13.90;;;30.50;53.10;;;;;;4973428;28;21150;-72
2022/08/10 07:15:00;;;;;;;14.53;14.03;;;30.50;52.80;;;;;;4973472;28;20488;-72
2022/08/10 07:17:28;;;;;;;14.10;13.60;;;30.70;52.30;;;;;;4973372;28;20514;-72
2022/08/10 07:19:57;;;;;;;14.10;13.60;;;30.30;51.90;;;;;;4973408;28;20459;-73
2022/08/10 07:22:27;;;;;;;13.70;13.20;;;30.10;52.00;;;;;;4973550;28;20522;-73
2022/08/10 07:24:55;;;;;;;14.53;14.03;;;30.10;52.70;;;;;;4973252;28;20950;-72
2022/08/10 07:27:23;;;;;;;13.90;13.27;;;29.40;52.70;;;;;;4973287;28;20452;-72
2022/08/10 07:29:53;;;;;;;14.43;13.83;;;29.40;53.90;;;;;;4973386;28;20964;-72
2022/08/10 07:32:21;;;;;;;13.53;13.03;;;29.70;53.80;;;;;;4973452;28;20456;-72
2022/08/10 07:34:52;;;;;;;13.73;13.13;;;29.90;52.80;;;;;;4973075;28;20487;-73
2022/08/10 07:37:20;;;;;;;14.90;14.30;;;30.40;52.60;;;;;;4973184;28;20478;-72
2022/08/10 07:39:49;;;;;;;14.17;13.57;;;30.30;52.50;;;;;;4973075;28;20878;-72
2022/08/10 07:42:18;;;;;;;14.80;14.00;;;30.50;51.90;;;;;;4972948;28;20459;-73
2022/08/10 07:44:46;;;;;;;14.70;14.00;;;30.60;52.10;;;;;;4972531;28;20463;-72
2022/08/10 07:47:19;;;;;;;14.57;14.03;;;30.80;51.40;;;;;;4972837;28;20942;-73
2022/08/10 07:49:47;;;;;;;13.77;13.27;;;31.30;50.90;;;;;;4972916;28;20456;-73
2022/08/10 07:52:14;;;;;;;15.40;14.60;;;31.10;50.40;;;;;;4972682;28;20946;-73
2022/08/10 07:54:43;;;;;;;15.10;14.50;;;31.30;50.00;;;;;;4972528;28;20829;-72
2022/08/10 07:57:17;;;;;;;15.43;14.57;;;30.40;51.20;;;;;;4972119;28;20456;-72
2022/08/10 07:59:45;;;;;;;14.13;13.60;;;29.80;51.80;;;;;;4972513;28;20838;-73
2022/08/10 08:02:23;;;;;;;13.40;12.80;;;29.60;52.60;;;;;;4970806;28;20463;-72
2022/08/10 08:04:50;;;;;;;15.50;14.80;;;29.60;52.70;;;;;;4971024;28;20451;-72
2022/08/10 08:07:19;;;;;;;14.70;14.20;;;30.30;51.70;;;;;;4972493;28;20463;-73
2022/08/10 08:09:48;;;;;;;15.23;14.53;;;31.10;50.80;;;;;;4970649;28;20954;-72
2022/08/10 08:12:16;;;;;;;13.97;13.37;;;30.80;50.10;;;;;;4972214;28;20452;-72
2022/08/10 08:14:43;;;;;;;15.40;14.60;;;30.40;50.40;;;;;;4972127;28;20483;-72
2022/08/10 08:17:13;;;;;;;14.97;14.47;;;30.30;51.30;;;;;;4972142;28;20460;-72
2022/08/10 08:19:43;;;;;;;15.57;14.97;;;30.50;51.40;;;;;;4972230;28;20451;-72
2022/08/10 08:22:11;;;;;;;14.80;14.10;;;30.80;50.10;;;;;;4972253;28;20451;-73
2022/08/10 08:24:39;;;;;;;16.47;15.57;;;30.80;50.00;;;;;;4972530;28;20456;-72
2022/08/10 08:27:06;;;;;;;14.23;13.73;;;30.80;50.00;;;;;;4972480;28;20455;-72
2022/08/10 08:29:35;;;;;;;14.27;13.73;;;31.00;50.00;;;;;;4972115;28;20843;-72
2022/08/10 08:32:03;;;;;;;16.27;15.57;;;31.20;49.40;;;;;;4971746;28;20456;-72
2022/08/10 08:34:32;;;;;;;15.67;14.90;;;31.80;48.40;;;;;;4971565;28;20491;-72
2022/08/10 08:37:00;;;;;;;15.47;14.87;;;32.10;48.00;;;;;;4971541;28;20941;-72
2022/08/10 08:39:27;;;;;;;14.60;14.10;;;32.00;47.60;;;;;;4971538;28;20455;-72
2022/08/10 08:42:09;;;;;;;14.43;13.80;;;31.90;47.40;;;;;;4971828;28;20451;-72
2022/08/10 08:44:50;;;;;;;13.80;12.93;;;32.00;47.10;;;;;;4971863;28;20475;-73
2022/08/10 08:47:33;;;;;;;14.53;14.03;;;32.40;46.70;;;;;;4971782;28;20452;-72
2022/08/10 08:50:24;;;;;;;15.80;14.90;;;32.70;45.60;;;;;;4971622;28;20490;-72
2022/08/10 08:52:59;;;;;;;15.60;14.90;;;32.80;45.50;;;;;;4971884;28;20439;-72
2022/08/10 08:55:42;;;;;;;15.80;15.00;;;32.90;45.10;;;;;;4971611;28;20490;-73
2022/08/10 08:58:25;;;;;;;15.87;15.27;;;33.00;43.90;;;;;;4972018;28;20455;-73
2022/08/10 09:01:02;;;;;;;14.97;14.47;;;32.30;44.80;;;;;;4971966;28;20494;-72
2022/08/10 09:03:51;;;;;;;14.70;14.20;;;32.20;44.50;;;;;;4971303;28;20456;-72
2022/08/10 09:06:36;;;;;;;15.10;14.50;;;32.50;43.80;;;;;;4971369;28;20474;-72
2022/08/10 09:09:20;;;;;;;14.20;13.70;;;31.80;44.70;;;;;;4970716;28;20459;-73
2022/08/10 09:12:02;;;;;;;14.77;14.17;;;32.00;43.80;;;;;;4971291;28;20498;-72
2022/08/10 09:14:36;;;;;;;16.67;15.50;;;32.00;43.60;;;;;;4971203;28;20486;-72
2022/08/10 18:51:23;;;;;;;11.80;11.20;;;26.10;43.80;;;;;;5562189;23;20492;-71
2022/08/10 18:53:53;;;;;;;10.60;10.20;;;26.00;44.00;;;;;;4953120;29;20472;-71
2022/08/10 18:56:35;;;;;;;11.20;10.70;;;25.90;44.20;;;;;;4949203;29;20840;-71
2022/08/10 18:59:19;;;;;;;11.70;11.20;;;25.90;44.70;;;;;;4945825;29;20455;-71
2022/08/10 19:02:08;;;;;;;11.03;10.30;;;25.70;45.10;;;;;;4945836;29;20441;-71
2022/08/10 19:04:50;;;;;;;11.07;10.47;;;25.50;45.30;;;;;;4945439;29;20788;-71
2022/08/10 19:07:56;;;;;;;10.97;10.33;;;25.40;45.70;;;;;;4945226;29;20982;-71
2022/08/10 19:10:35;;;;;;;10.90;10.40;;;25.50;45.30;;;;;;4943654;28;20453;-71
2022/08/10 19:13:08;;;;;;;10.33;9.80;;;25.40;45.60;;;;;;4943629;29;20466;-71
2022/08/10 19:15:44;;;;;;;11.30;10.70;;;25.30;45.90;;;;;;4944458;29;21077;-71
2022/08/10 19:18:31;;;;;;;11.00;10.50;;;25.20;46.30;;;;;;4943901;29;20445;-72
2022/08/10 19:21:04;;;;;;;11.43;10.57;;;25.10;46.90;;;;;;4944906;29;20453;-71
2022/08/10 19:23:43;;;;;;;11.50;11.00;;;25.00;46.90;;;;;;4944053;29;20827;-71
2022/08/10 19:26:28;;;;;;;11.03;10.50;;;25.00;46.80;;;;;;4935027;29;20485;-71
2022/08/10 19:29:04;;;;;;;10.57;10.07;;;25.10;46.60;;;;;;4934854;29;20464;-71
2022/08/10 19:31:40;;;;;;;10.80;10.30;;;25.20;46.70;;;;;;4935250;29;20449;-71
2022/08/10 19:34:21;;;;;;;10.63;10.23;;;25.20;46.80;;;;;;4935294;29;20453;-71
2022/08/10 19:36:56;;;;;;;11.00;10.60;;;25.20;47.10;;;;;;4934785;29;20453;-71
2022/08/10 19:39:35;;;;;;;11.90;11.40;;;25.10;47.20;;;;;;4935070;29;20479;-70
2022/08/10 19:42:09;;;;;;;10.57;10.17;;;25.10;47.30;;;;;;4934901;29;20457;-70
2022/08/10 19:44:45;;;;;;;10.67;10.27;;;25.10;47.40;;;;;;4937413;29;20461;-71
2022/08/10 19:47:26;;;;;;;10.60;10.10;;;25.00;47.70;;;;;;4942268;29;20445;-70
2022/08/10 19:49:59;;;;;;;11.23;10.77;;;24.90;47.80;;;;;;4944414;29;20556;-70
2022/08/10 19:52:32;;;;;;;10.57;10.17;;;24.90;48.20;;;;;;4942564;28;20990;-70
2022/08/10 19:55:11;;;;;;;10.93;10.47;;;24.80;48.20;;;;;;4942611;29;20493;-72
2022/08/10 19:57:46;;;;;;;10.87;10.27;;;24.80;48.40;;;;;;4942745;29;20453;-70
2022/08/10 20:00:14;;;;;;;10.80;10.37;;;24.70;48.50;;;;;;4943261;29;20456;-71
2022/08/10 20:02:59;;;;;;;11.10;10.50;;;24.80;48.60;;;;;;4944588;29;20452;-71
2022/08/10 20:05:32;;;;;;;11.30;10.80;;;24.80;48.60;;;;;;4943737;29;20448;-70
2022/08/10 20:08:07;;;;;;;11.20;10.70;;;24.80;48.60;;;;;;4944768;29;21148;-71
2022/08/10 20:10:44;;;;;;;10.73;10.33;;;24.80;48.60;;;;;;4944818;29;20441;-70
2022/08/10 20:13:19;;;;;;;10.83;10.33;;;24.80;48.50;;;;;;4944080;29;20932;-72
2022/08/10 20:15:54;;;;;;;10.10;9.70;;;24.90;48.60;;;;;;4937131;29;20544;-70
2022/08/10 20:18:23;;;;;;;10.60;10.10;;;24.80;48.80;;;;;;4934809;29;20452;-71
2022/08/10 20:20:57;;;;;;;10.53;10.13;;;24.60;49.00;;;;;;4934749;29;20453;-71
2022/08/10 20:23:29;;;;;;;11.07;10.67;;;24.60;49.40;;;;;;4934534;29;20939;-71
2022/08/10 20:26:01;;;;;;;10.50;10.10;;;24.40;49.50;;;;;;4934543;29;20457;-71
2022/08/10 20:28:40;;;;;;;11.00;10.50;;;24.30;49.90;;;;;;4934493;29;20464;-71
2022/08/10 20:31:10;;;;;;;11.10;10.60;;;24.20;50.20;;;;;;4934580;29;20453;-70
2022/08/10 20:33:42;;;;;;;10.60;10.20;;;24.10;50.30;;;;;;4934624;29;20569;-71
2022/08/10 20:36:20;;;;;;;11.30;10.77;;;24.10;50.30;;;;;;4934343;29;20548;-69
2022/08/10 20:38:57;;;;;;;10.90;10.40;;;24.10;50.40;;;;;;4934241;29;20492;-71
2022/08/10 20:41:32;;;;;;;9.40;9.00;;;24.10;50.40;;;;;;4934336;29;20464;-71
2022/08/10 20:44:10;;;;;;;9.10;8.70;;;24.10;50.30;;;;;;4934007;29;20480;-70
2022/08/10 20:46:43;;;;;;;10.33;10.03;;;24.10;50.30;;;;;;4934304;29;20804;-70
2022/08/10 20:49:19;;;;;;;10.20;9.77;;;24.20;50.10;;;;;;4933905;29;20477;-70
2022/08/10 20:51:51;;;;;;;11.73;11.30;;;24.20;50.20;;;;;;4933916;29;20496;-70
2022/08/10 20:54:20;;;;;;;10.63;10.03;;;24.10;50.30;;;;;;4934208;29;20453;-71
2022/08/10 20:57:16;;;;;;;12.40;11.90;;;24.10;50.30;;;;;;4933977;29;20558;-71
2022/08/10 20:59:52;;;;;;;11.27;10.67;;;24.10;50.50;;;;;;4933863;29;20461;-70
2022/08/10 21:02:32;;;;;;;10.60;10.07;;;23.90;50.60;;;;;;4934209;29;20811;-70
2022/08/10 21:05:05;;;;;;;10.20;9.80;;;23.80;50.90;;;;;;4932675;29;20445;-71
2022/08/10 21:07:51;;;;;;;10.20;9.80;;;23.70;51.00;;;;;;4933686;29;20982;-71
2022/08/10 21:10:36;;;;;;;11.87;11.10;;;23.60;51.10;;;;;;4933710;29;20468;-70
2022/08/10 21:13:20;;;;;;;12.73;11.90;;;23.40;53.40;;;;;;4933890;29;20458;-71
2022/08/10 21:16:00;;;;;;;13.07;12.37;;;23.20;55.00;;;;;;4933590;29;20496;-72
2022/08/10 21:18:43;;;;;;;12.50;11.83;;;22.90;56.20;;;;;;4933596;29;20480;-71
2022/08/10 21:21:42;;;;;;;12.13;11.57;;;22.80;56.10;;;;;;4933540;29;20955;-69
2022/08/10 21:24:13;;;;;;;12.17;11.47;;;22.60;56.30;;;;;;4933749;29;20818;-70
